Terminal Aerodrome Forecast
Issued by NWS

Home | Current Version | Previous Version | Text Only | Print | Product List | Glossary On
Versions: 1 2 3 4 5 6 7 8 9 10 11 12 13 14 15 16
000
FTUS43 KTOP 231137
TAFMHK
TAF
KMHK 231137Z 2312/2412 11008KT P6SM OVC025
     FM231400 15016G23KT P6SM SCT035
     FM231900 18021G30KT P6SM SCT120
     FM240200 18016G23KT P6SM SCT200 WS020/19055KT=

USA.gov is the U.S. government's official web portal to all federal, state and local government web resources and services.